sensor_id;sensor_type;location;lat;lon;timestamp;temperature;humidity
18781;DHT22;9519;51.890;8.970;2023-07-13T00:05:00;19.10;76.70
18781;DHT22;9519;51.890;8.970;2023-07-13T00:10:02;19.00;76.80
18781;DHT22;9519;51.890;8.970;2023-07-13T00:15:12;19.00;77.10
18781;DHT22;9519;51.890;8.970;2023-07-13T00:20:16;19.00;77.40
18781;DHT22;9519;51.890;8.970;2023-07-13T00:25:22;19.00;77.30
18781;DHT22;9519;51.890;8.970;2023-07-13T00:30:28;19.00;77.50
18781;DHT22;9519;51.890;8.970;2023-07-13T00:35:31;18.90;77.70
18781;DHT22;9519;51.890;8.970;2023-07-13T00:40:33;18.90;77.80
18781;DHT22;9519;51.890;8.970;2023-07-13T00:46:12;18.80;78.00
18781;DHT22;9519;51.890;8.970;2023-07-13T00:51:23;18.80;78.40
18781;DHT22;9519;51.890;8.970;2023-07-13T00:56:28;18.60;78.40
18781;DHT22;9519;51.890;8.970;2023-07-13T01:01:33;18.60;78.70
18781;DHT22;9519;51.890;8.970;2023-07-13T01:06:39;18.50;79.00
18781;DHT22;9519;51.890;8.970;2023-07-13T01:11:44;18.40;79.30
18781;DHT22;9519;51.890;8.970;2023-07-13T01:16:48;18.30;79.40
18781;DHT22;9519;51.890;8.970;2023-07-13T01:21:53;18.30;79.70
18781;DHT22;9519;51.890;8.970;2023-07-13T01:26:55;18.20;79.80
18781;DHT22;9519;51.890;8.970;2023-07-13T01:31:57;18.20;80.00
18781;DHT22;9519;51.890;8.970;2023-07-13T01:37:02;18.10;80.10
18781;DHT22;9519;51.890;8.970;2023-07-13T01:42:04;18.00;80.30
18781;DHT22;9519;51.890;8.970;2023-07-13T01:47:07;18.00;80.60
18781;DHT22;9519;51.890;8.970;2023-07-13T01:52:10;17.90;80.90
18781;DHT22;9519;51.890;8.970;2023-07-13T01:57:12;17.90;81.20
18781;DHT22;9519;51.890;8.970;2023-07-13T02:02:15;17.80;81.30
18781;DHT22;9519;51.890;8.970;2023-07-13T02:07:18;17.80;81.70
18781;DHT22;9519;51.890;8.970;2023-07-13T02:12:20;17.80;82.00
18781;DHT22;9519;51.890;8.970;2023-07-13T02:17:22;17.70;82.30
18781;DHT22;9519;51.890;8.970;2023-07-13T02:22:26;17.70;82.30
18781;DHT22;9519;51.890;8.970;2023-07-13T02:27:28;17.70;82.50
18781;DHT22;9519;51.890;8.970;2023-07-13T02:32:33;17.60;82.90
18781;DHT22;9519;51.890;8.970;2023-07-13T02:37:37;17.60;83.70
18781;DHT22;9519;51.890;8.970;2023-07-13T02:42:39;17.50;84.50
18781;DHT22;9519;51.890;8.970;2023-07-13T02:47:42;17.50;85.60
18781;DHT22;9519;51.890;8.970;2023-07-13T02:52:45;17.30;86.60
18781;DHT22;9519;51.890;8.970;2023-07-13T02:57:47;17.20;87.60
18781;DHT22;9519;51.890;8.970;2023-07-13T03:02:50;17.10;88.00
18781;DHT22;9519;51.890;8.970;2023-07-13T03:07:54;16.90;88.40
18781;DHT22;9519;51.890;8.970;2023-07-13T03:12:56;16.80;89.20
18781;DHT22;9519;51.890;8.970;2023-07-13T03:17:58;16.80;89.40
18781;DHT22;9519;51.890;8.970;2023-07-13T03:23:02;16.70;89.50
18781;DHT22;9519;51.890;8.970;2023-07-13T03:28:04;16.70;89.70
18781;DHT22;9519;51.890;8.970;2023-07-13T03:33:07;16.70;89.70
18781;DHT22;9519;51.890;8.970;2023-07-13T03:38:10;16.70;89.90
18781;DHT22;9519;51.890;8.970;2023-07-13T03:43:12;16.70;89.70
18781;DHT22;9519;51.890;8.970;2023-07-13T03:48:14;16.70;89.80
18781;DHT22;9519;51.890;8.970;2023-07-13T03:53:18;16.60;90.20
18781;DHT22;9519;51.890;8.970;2023-07-13T03:58:27;16.50;90.00
18781;DHT22;9519;51.890;8.970;2023-07-13T04:03:34;16.40;90.00
18781;DHT22;9519;51.890;8.970;2023-07-13T04:08:37;16.40;90.00
18781;DHT22;9519;51.890;8.970;2023-07-13T04:13:40;16.40;90.30
18781;DHT22;9519;51.890;8.970;2023-07-13T04:18:42;16.40;90.00
18781;DHT22;9519;51.890;8.970;2023-07-13T04:23:45;16.50;89.80
18781;DHT22;9519;51.890;8.970;2023-07-13T04:28:48;16.50;89.70
18781;DHT22;9519;51.890;8.970;2023-07-13T04:33:50;16.50;89.50
18781;DHT22;9519;51.890;8.970;2023-07-13T04:38:55;16.60;89.50
18781;DHT22;9519;51.890;8.970;2023-07-13T04:43:57;16.70;89.50
18781;DHT22;9519;51.890;8.970;2023-07-13T04:48:59;16.70;89.50
18781;DHT22;9519;51.890;8.970;2023-07-13T04:54:02;16.60;89.50
18781;DHT22;9519;51.890;8.970;2023-07-13T04:59:08;16.60;89.50
18781;DHT22;9519;51.890;8.970;2023-07-13T05:04:10;16.70;89.60
18781;DHT22;9519;51.890;8.970;2023-07-13T05:09:13;16.70;89.20
18781;DHT22;9519;51.890;8.970;2023-07-13T05:14:16;16.70;89.00
18781;DHT22;9519;51.890;8.970;2023-07-13T05:19:18;16.80;88.70
18781;DHT22;9519;51.890;8.970;2023-07-13T05:24:21;16.80;88.70
18781;DHT22;9519;51.890;8.970;2023-07-13T05:29:23;16.90;88.90
18781;DHT22;9519;51.890;8.970;2023-07-13T05:34:25;16.90;88.80
18781;DHT22;9519;51.890;8.970;2023-07-13T05:39:29;17.00;88.70
18781;DHT22;9519;51.890;8.970;2023-07-13T05:44:31;17.00;88.80
18781;DHT22;9519;51.890;8.970;2023-07-13T05:49:33;17.10;88.80
18781;DHT22;9519;51.890;8.970;2023-07-13T05:54:37;17.10;89.00
18781;DHT22;9519;51.890;8.970;2023-07-13T05:59:39;17.10;89.00
18781;DHT22;9519;51.890;8.970;2023-07-13T06:04:41;17.10;88.80
18781;DHT22;9519;51.890;8.970;2023-07-13T06:09:44;17.10;88.50
18781;DHT22;9519;51.890;8.970;2023-07-13T06:14:47;17.10;88.50
18781;DHT22;9519;51.890;8.970;2023-07-13T06:19:49;17.10;88.60
18781;DHT22;9519;51.890;8.970;2023-07-13T06:24:52;17.10;88.50
18781;DHT22;9519;51.890;8.970;2023-07-13T06:29:55;17.10;88.70
18781;DHT22;9519;51.890;8.970;2023-07-13T06:34:57;17.10;88.80
18781;DHT22;9519;51.890;8.970;2023-07-13T06:40:00;17.10;88.70
18781;DHT22;9519;51.890;8.970;2023-07-13T06:45:03;17.10;88.90
18781;DHT22;9519;51.890;8.970;2023-07-13T06:50:06;17.20;89.30
18781;DHT22;9519;51.890;8.970;2023-07-13T06:55:11;17.20;89.60
18781;DHT22;9519;51.890;8.970;2023-07-13T07:00:14;17.20;90.30
18781;DHT22;9519;51.890;8.970;2023-07-13T07:05:16;17.40;90.00
18781;DHT22;9519;51.890;8.970;2023-07-13T07:10:23;17.50;90.10
18781;DHT22;9519;51.890;8.970;2023-07-13T07:15:26;17.60;90.00
18781;DHT22;9519;51.890;8.970;2023-07-13T07:20:28;17.60;90.10
18781;DHT22;9519;51.890;8.970;2023-07-13T07:25:32;17.70;90.10
18781;DHT22;9519;51.890;8.970;2023-07-13T07:30:37;17.80;90.20
18781;DHT22;9519;51.890;8.970;2023-07-13T07:35:43;17.90;90.20
18781;DHT22;9519;51.890;8.970;2023-07-13T07:40:47;18.00;90.20
18781;DHT22;9519;51.890;8.970;2023-07-13T07:45:49;18.20;90.20
18781;DHT22;9519;51.890;8.970;2023-07-13T07:50:51;18.20;90.00
18781;DHT22;9519;51.890;8.970;2023-07-13T07:55:55;18.30;90.00
18781;DHT22;9519;51.890;8.970;2023-07-13T08:01:03;18.30;90.00
18781;DHT22;9519;51.890;8.970;2023-07-13T08:06:06;18.30;90.00
18781;DHT22;9519;51.890;8.970;2023-07-13T08:11:09;18.30;90.00
18781;DHT22;9519;51.890;8.970;2023-07-13T08:16:16;18.40;90.10
18781;DHT22;9519;51.890;8.970;2023-07-13T08:21:18;18.40;90.00
18781;DHT22;9519;51.890;8.970;2023-07-13T08:26:22;18.60;90.10
18781;DHT22;9519;51.890;8.970;2023-07-13T08:31:24;18.60;90.00
18781;DHT22;9519;51.890;8.970;2023-07-13T08:36:28;18.80;90.10
18781;DHT22;9519;51.890;8.970;2023-07-13T08:41:33;19.00;89.80
18781;DHT22;9519;51.890;8.970;2023-07-13T08:46:39;19.30;90.00
18781;DHT22;9519;51.890;8.970;2023-07-13T08:51:45;19.50;89.90
18781;DHT22;9519;51.890;8.970;2023-07-13T08:56:58;19.70;87.90
18781;DHT22;9519;51.890;8.970;2023-07-13T09:02:20;19.80;88.60
18781;DHT22;9519;51.890;8.970;2023-07-13T09:07:38;19.90;88.40
18781;DHT22;9519;51.890;8.970;2023-07-13T09:13:01;20.10;88.00
18781;DHT22;9519;51.890;8.970;2023-07-13T09:18:23;20.20;86.80
18781;DHT22;9519;51.890;8.970;2023-07-13T09:23:31;20.20;85.70
18781;DHT22;9519;51.890;8.970;2023-07-13T09:28:39;20.20;85.70
18781;DHT22;9519;51.890;8.970;2023-07-13T09:33:45;20.40;85.00
18781;DHT22;9519;51.890;8.970;2023-07-13T09:38:48;20.50;85.10
18781;DHT22;9519;51.890;8.970;2023-07-13T09:44:12;20.60;84.70
18781;DHT22;9519;51.890;8.970;2023-07-13T09:49:17;20.70;83.50
18781;DHT22;9519;51.890;8.970;2023-07-13T09:54:24;20.70;83.20
18781;DHT22;9519;51.890;8.970;2023-07-13T09:59:30;20.70;84.00
18781;DHT22;9519;51.890;8.970;2023-07-13T10:04:34;20.80;83.10
18781;DHT22;9519;51.890;8.970;2023-07-13T10:09:36;20.90;82.80
18781;DHT22;9519;51.890;8.970;2023-07-13T10:14:41;21.10;81.70
18781;DHT22;9519;51.890;8.970;2023-07-13T10:19:44;21.20;81.20
18781;DHT22;9519;51.890;8.970;2023-07-13T10:24:49;21.20;81.00
18781;DHT22;9519;51.890;8.970;2023-07-13T10:29:58;21.40;80.50
18781;DHT22;9519;51.890;8.970;2023-07-13T10:35:04;21.50;79.60
18781;DHT22;9519;51.890;8.970;2023-07-13T10:40:13;21.70;78.90
18781;DHT22;9519;51.890;8.970;2023-07-13T10:45:22;21.60;78.60
18781;DHT22;9519;51.890;8.970;2023-07-13T10:50:26;21.50;77.90
18781;DHT22;9519;51.890;8.970;2023-07-13T10:55:39;21.40;79.30
18781;DHT22;9519;51.890;8.970;2023-07-13T11:01:03;21.60;78.10
18781;DHT22;9519;51.890;8.970;2023-07-13T11:06:13;21.70;76.50
18781;DHT22;9519;51.890;8.970;2023-07-13T11:11:36;21.80;76.50
18781;DHT22;9519;51.890;8.970;2023-07-13T11:16:44;21.80;75.80
18781;DHT22;9519;51.890;8.970;2023-07-13T11:22:13;21.90;75.30
18781;DHT22;9519;51.890;8.970;2023-07-13T11:27:33;22.10;75.10
18781;DHT22;9519;51.890;8.970;2023-07-13T11:32:39;22.30;74.20
18781;DHT22;9519;51.890;8.970;2023-07-13T11:37:41;22.40;74.10
18781;DHT22;9519;51.890;8.970;2023-07-13T11:42:44;22.40;74.20
18781;DHT22;9519;51.890;8.970;2023-07-13T11:47:48;22.50;73.60
18781;DHT22;9519;51.890;8.970;2023-07-13T11:52:51;22.50;72.90
18781;DHT22;9519;51.890;8.970;2023-07-13T11:57:58;22.40;70.90
18781;DHT22;9519;51.890;8.970;2023-07-13T12:03:05;22.30;72.50
18781;DHT22;9519;51.890;8.970;2023-07-13T12:08:11;22.30;71.70
18781;DHT22;9519;51.890;8.970;2023-07-13T12:13:13;22.40;72.20
18781;DHT22;9519;51.890;8.970;2023-07-13T12:18:19;22.40;72.30
18781;DHT22;9519;51.890;8.970;2023-07-13T12:23:28;22.50;72.30
18781;DHT22;9519;51.890;8.970;2023-07-13T12:28:34;22.40;72.00
18781;DHT22;9519;51.890;8.970;2023-07-13T12:33:39;22.40;72.00
18781;DHT22;9519;51.890;8.970;2023-07-13T12:38:45;22.50;72.20
18781;DHT22;9519;51.890;8.970;2023-07-13T12:43:48;22.50;70.70
18781;DHT22;9519;51.890;8.970;2023-07-13T12:48:53;22.50;69.40
18781;DHT22;9519;51.890;8.970;2023-07-13T12:53:59;22.50;70.70
18781;DHT22;9519;51.890;8.970;2023-07-13T12:59:16;22.40;69.00
18781;DHT22;9519;51.890;8.970;2023-07-13T13:04:22;22.30;68.00
18781;DHT22;9519;51.890;8.970;2023-07-13T13:09:25;22.30;67.80
18781;DHT22;9519;51.890;8.970;2023-07-13T13:14:27;22.40;69.20
18781;DHT22;9519;51.890;8.970;2023-07-13T13:19:30;22.80;69.80
18781;DHT22;9519;51.890;8.970;2023-07-13T13:24:32;23.20;68.40
18781;DHT22;9519;51.890;8.970;2023-07-13T13:29:38;23.30;69.20
18781;DHT22;9519;51.890;8.970;2023-07-13T13:34:42;23.50;67.00
18781;DHT22;9519;51.890;8.970;2023-07-13T13:39:45;23.50;67.20
18781;DHT22;9519;51.890;8.970;2023-07-13T13:44:47;23.60;66.40
18781;DHT22;9519;51.890;8.970;2023-07-13T13:49:50;23.60;66.50
18781;DHT22;9519;51.890;8.970;2023-07-13T13:54:52;23.60;66.50
18781;DHT22;9519;51.890;8.970;2023-07-13T13:59:56;23.50;67.20
18781;DHT22;9519;51.890;8.970;2023-07-13T14:05:01;23.60;66.80
18781;DHT22;9519;51.890;8.970;2023-07-13T14:10:12;23.80;65.70
18781;DHT22;9519;51.890;8.970;2023-07-13T14:15:20;24.00;65.50
18781;DHT22;9519;51.890;8.970;2023-07-13T14:20:26;24.30;63.80
18781;DHT22;9519;51.890;8.970;2023-07-13T14:25:28;24.30;62.80
18781;DHT22;9519;51.890;8.970;2023-07-13T14:30:30;24.00;62.20
18781;DHT22;9519;51.890;8.970;2023-07-13T14:35:34;23.70;63.50
18781;DHT22;9519;51.890;8.970;2023-07-13T14:40:36;22.90;66.00
18781;DHT22;9519;51.890;8.970;2023-07-13T14:45:40;22.00;69.00
18781;DHT22;9519;51.890;8.970;2023-07-13T14:50:46;21.10;71.50
18781;DHT22;9519;51.890;8.970;2023-07-13T14:55:48;20.60;73.70
18781;DHT22;9519;51.890;8.970;2023-07-13T15:00:50;20.20;75.70
18781;DHT22;9519;51.890;8.970;2023-07-13T15:05:57;19.80;77.90
18781;DHT22;9519;51.890;8.970;2023-07-13T15:10:59;19.50;79.00
18781;DHT22;9519;51.890;8.970;2023-07-13T15:16:01;19.30;81.00
18781;DHT22;9519;51.890;8.970;2023-07-13T15:21:08;19.00;82.80
18781;DHT22;9519;51.890;8.970;2023-07-13T15:26:14;18.80;84.90
18781;DHT22;9519;51.890;8.970;2023-07-13T15:31:19;18.60;86.70
18781;DHT22;9519;51.890;8.970;2023-07-13T15:36:25;18.30;88.70
18781;DHT22;9519;51.890;8.970;2023-07-13T15:41:28;18.10;89.60
18781;DHT22;9519;51.890;8.970;2023-07-13T15:46:30;18.00;90.50
18781;DHT22;9519;51.890;8.970;2023-07-13T15:51:34;17.80;91.10
18781;DHT22;9519;51.890;8.970;2023-07-13T15:56:37;17.70;91.90
18781;DHT22;9519;51.890;8.970;2023-07-13T16:01:41;17.60;92.00
18781;DHT22;9519;51.890;8.970;2023-07-13T16:06:48;17.50;92.50
18781;DHT22;9519;51.890;8.970;2023-07-13T16:11:51;17.30;93.20
18781;DHT22;9519;51.890;8.970;2023-07-13T16:16:55;17.20;93.40
18781;DHT22;9519;51.890;8.970;2023-07-13T16:21:59;17.10;93.90
18781;DHT22;9519;51.890;8.970;2023-07-13T16:27:06;17.10;93.60
18781;DHT22;9519;51.890;8.970;2023-07-13T16:32:12;17.00;93.60
18781;DHT22;9519;51.890;8.970;2023-07-13T16:37:18;17.10;93.80
18781;DHT22;9519;51.890;8.970;2023-07-13T16:42:23;17.10;93.70
18781;DHT22;9519;51.890;8.970;2023-07-13T16:47:25;17.10;93.70
18781;DHT22;9519;51.890;8.970;2023-07-13T16:52:29;17.20;93.90
18781;DHT22;9519;51.890;8.970;2023-07-13T16:57:33;17.20;93.90
18781;DHT22;9519;51.890;8.970;2023-07-13T17:02:38;17.30;94.20
18781;DHT22;9519;51.890;8.970;2023-07-13T17:07:43;17.80;94.60
18781;DHT22;9519;51.890;8.970;2023-07-13T17:12:46;18.30;94.30
18781;DHT22;9519;51.890;8.970;2023-07-13T17:17:49;18.60;94.00
18781;DHT22;9519;51.890;8.970;2023-07-13T17:22:53;18.70;93.40
18781;DHT22;9519;51.890;8.970;2023-07-13T17:27:56;18.70;92.90
18781;DHT22;9519;51.890;8.970;2023-07-13T17:32:58;18.60;92.60
18781;DHT22;9519;51.890;8.970;2023-07-13T17:38:03;18.60;92.50
18781;DHT22;9519;51.890;8.970;2023-07-13T17:43:06;18.60;92.80
18781;DHT22;9519;51.890;8.970;2023-07-13T17:48:09;18.80;92.90
18781;DHT22;9519;51.890;8.970;2023-07-13T17:53:16;19.30;92.60
18781;DHT22;9519;51.890;8.970;2023-07-13T17:58:20;19.60;91.80
18781;DHT22;9519;51.890;8.970;2023-07-13T18:03:25;19.70;91.20
18781;DHT22;9519;51.890;8.970;2023-07-13T18:08:33;19.70;91.00
18781;DHT22;9519;51.890;8.970;2023-07-13T18:13:35;19.60;90.60
18781;DHT22;9519;51.890;8.970;2023-07-13T18:18:40;19.40;90.40
18781;DHT22;9519;51.890;8.970;2023-07-13T18:23:45;19.30;90.40
18781;DHT22;9519;51.890;8.970;2023-07-13T18:28:48;19.00;90.40
18781;DHT22;9519;51.890;8.970;2023-07-13T18:33:52;18.90;90.80
18781;DHT22;9519;51.890;8.970;2023-07-13T18:38:57;18.80;90.80
18781;DHT22;9519;51.890;8.970;2023-07-13T18:43:59;18.60;90.80
18781;DHT22;9519;51.890;8.970;2023-07-13T18:49:03;18.40;91.20
18781;DHT22;9519;51.890;8.970;2023-07-13T18:54:11;18.20;91.10
18781;DHT22;9519;51.890;8.970;2023-07-13T18:59:15;18.00;91.40
18781;DHT22;9519;51.890;8.970;2023-07-13T19:04:27;17.80;91.70
18781;DHT22;9519;51.890;8.970;2023-07-13T19:09:31;17.70;92.10
18781;DHT22;9519;51.890;8.970;2023-07-13T19:14:34;17.70;92.40
18781;DHT22;9519;51.890;8.970;2023-07-13T19:19:36;17.60;92.80
18781;DHT22;9519;51.890;8.970;2023-07-13T19:24:39;17.60;93.00
18781;DHT22;9519;51.890;8.970;2023-07-13T19:29:41;17.60;93.20
18781;DHT22;9519;51.890;8.970;2023-07-13T19:34:44;17.60;93.30
18781;DHT22;9519;51.890;8.970;2023-07-13T19:39:47;17.60;93.60
18781;DHT22;9519;51.890;8.970;2023-07-13T19:44:55;17.50;93.80
18781;DHT22;9519;51.890;8.970;2023-07-13T19:49:58;17.50;94.10
18781;DHT22;9519;51.890;8.970;2023-07-13T19:55:09;17.40;94.30
18781;DHT22;9519;51.890;8.970;2023-07-13T20:00:15;17.40;94.50
18781;DHT22;9519;51.890;8.970;2023-07-13T20:05:20;17.40;94.60
18781;DHT22;9519;51.890;8.970;2023-07-13T20:10:26;17.30;94.70
18781;DHT22;9519;51.890;8.970;2023-07-13T20:15:44;17.30;94.90
18781;DHT22;9519;51.890;8.970;2023-07-13T20:20:46;17.30;95.00
18781;DHT22;9519;51.890;8.970;2023-07-13T20:25:50;17.30;95.00
18781;DHT22;9519;51.890;8.970;2023-07-13T20:30:52;17.30;95.10
18781;DHT22;9519;51.890;8.970;2023-07-13T20:36:02;17.30;95.10
18781;DHT22;9519;51.890;8.970;2023-07-13T20:41:10;17.30;95.00
18781;DHT22;9519;51.890;8.970;2023-07-13T20:46:15;17.30;94.90
18781;DHT22;9519;51.890;8.970;2023-07-13T20:51:20;17.30;94.90
18781;DHT22;9519;51.890;8.970;2023-07-13T20:56:27;17.30;94.80
18781;DHT22;9519;51.890;8.970;2023-07-13T21:01:31;17.30;94.90
18781;DHT22;9519;51.890;8.970;2023-07-13T21:06:37;17.30;94.90
18781;DHT22;9519;51.890;8.970;2023-07-13T21:11:41;17.40;95.00
18781;DHT22;9519;51.890;8.970;2023-07-13T21:16:43;17.40;95.10
18781;DHT22;9519;51.890;8.970;2023-07-13T21:26:50;17.40;95.50
18781;DHT22;9519;51.890;8.970;2023-07-13T21:31:52;17.40;95.20
18781;DHT22;9519;51.890;8.970;2023-07-13T21:36:55;17.30;95.00
18781;DHT22;9519;51.890;8.970;2023-07-13T21:42:01;17.30;95.00
18781;DHT22;9519;51.890;8.970;2023-07-13T21:47:03;17.20;95.10
18781;DHT22;9519;51.890;8.970;2023-07-13T21:52:14;17.20;95.10
18781;DHT22;9519;51.890;8.970;2023-07-13T21:57:19;17.10;95.20
18781;DHT22;9519;51.890;8.970;2023-07-13T22:02:21;17.10;95.20
18781;DHT22;9519;51.890;8.970;2023-07-13T22:07:23;17.00;95.30
18781;DHT22;9519;51.890;8.970;2023-07-13T22:12:26;16.90;95.40
18781;DHT22;9519;51.890;8.970;2023-07-13T22:17:28;16.90;95.50
18781;DHT22;9519;51.890;8.970;2023-07-13T22:22:30;16.80;95.50
18781;DHT22;9519;51.890;8.970;2023-07-13T22:27:34;16.70;95.60
18781;DHT22;9519;51.890;8.970;2023-07-13T22:32:36;16.60;95.70
18781;DHT22;9519;51.890;8.970;2023-07-13T22:37:39;16.50;95.70
18781;DHT22;9519;51.890;8.970;2023-07-13T22:42:43;16.50;95.80
18781;DHT22;9519;51.890;8.970;2023-07-13T22:47:46;16.40;95.90
18781;DHT22;9519;51.890;8.970;2023-07-13T22:52:50;16.30;95.90
18781;DHT22;9519;51.890;8.970;2023-07-13T22:57:53;16.20;96.00
18781;DHT22;9519;51.890;8.970;2023-07-13T23:02:55;16.10;96.10
18781;DHT22;9519;51.890;8.970;2023-07-13T23:07:57;16.00;96.10
18781;DHT22;9519;51.890;8.970;2023-07-13T23:13:01;15.90;96.20
18781;DHT22;9519;51.890;8.970;2023-07-13T23:18:03;15.80;96.20
18781;DHT22;9519;51.890;8.970;2023-07-13T23:23:10;15.80;96.30
18781;DHT22;9519;51.890;8.970;2023-07-13T23:28:15;15.70;96.50
18781;DHT22;9519;51.890;8.970;2023-07-13T23:33:21;15.70;96.60
18781;DHT22;9519;51.890;8.970;2023-07-13T23:38:26;15.60;96.70
18781;DHT22;9519;51.890;8.970;2023-07-13T23:43:30;15.60;96.80
18781;DHT22;9519;51.890;8.970;2023-07-13T23:48:32;15.60;96.80
18781;DHT22;9519;51.890;8.970;2023-07-13T23:53:34;15.60;96.90
18781;DHT22;9519;51.890;8.970;2023-07-13T23:58:38;15.60;97.00
